Time;durP1;ratioP1;P1;durP2;ratioP2;P2;SDS_P1;SDS_P2;PMS_P1;PMS_P2;Temp;Humidity;BMP_temperature;BMP_pressure;BME280_temperature;BME280_humidity;BME280_pressure;Samples;Min_cycle;Max_cycle;Signal;HPM_P1;HPM_P2
2023/07/19 00:00:13;;;;;;;2.42;1.00;;;20.40;64.30;;;;;;5056373;28;20029;-69
2023/07/19 00:02:39;;;;;;;1.77;0.80;;;20.40;64.40;;;;;;5024187;28;20035;-68
2023/07/19 00:05:07;;;;;;;2.40;1.30;;;20.30;64.70;;;;;;5037660;28;20033;-68
2023/07/19 00:07:32;;;;;;;2.53;1.40;;;20.30;65.10;;;;;;5026563;28;20096;-68
2023/07/19 00:09:58;;;;;;;2.53;1.30;;;20.10;65.70;;;;;;5048432;28;20119;-67
2023/07/19 00:12:24;;;;;;;2.40;1.33;;;20.10;65.70;;;;;;5021320;28;20079;-68
2023/07/19 00:14:49;;;;;;;1.48;1.10;;;20.10;66.00;;;;;;5056041;28;20103;-67
2023/07/19 00:17:15;;;;;;;2.50;1.25;;;20.00;66.10;;;;;;5051140;28;20033;-67
2023/07/19 00:19:40;;;;;;;1.30;0.98;;;20.00;66.30;;;;;;5048179;28;20098;-68
2023/07/19 00:22:08;;;;;;;1.65;0.90;;;20.00;66.20;;;;;;5059723;28;20035;-67
2023/07/19 00:24:33;;;;;;;2.88;1.13;;;20.10;66.10;;;;;;5055371;28;20037;-65
2023/07/19 00:26:59;;;;;;;1.60;0.93;;;20.10;66.10;;;;;;5053722;28;20070;-67
2023/07/19 00:29:25;;;;;;;1.98;1.00;;;20.20;66.00;;;;;;5063218;28;20481;-68
2023/07/19 00:31:50;;;;;;;1.10;0.90;;;20.20;65.80;;;;;;5053960;28;20028;-68
2023/07/19 00:34:16;;;;;;;1.85;1.10;;;20.30;65.80;;;;;;5049120;28;20078;-67
2023/07/19 00:36:41;;;;;;;1.85;1.00;;;20.20;65.70;;;;;;5045752;28;20028;-69
2023/07/19 00:39:07;;;;;;;2.40;0.90;;;20.30;65.70;;;;;;5065337;28;20377;-67
2023/07/19 00:41:33;;;;;;;1.58;1.13;;;20.30;65.70;;;;;;5054599;28;20143;-67
2023/07/19 00:43:58;;;;;;;1.30;1.00;;;20.20;65.70;;;;;;5054336;28;21511;-67
2023/07/19 00:46:25;;;;;;;2.83;1.10;;;20.20;65.70;;;;;;5047171;28;20525;-66
2023/07/19 00:48:51;;;;;;;1.90;1.17;;;20.20;65.70;;;;;;5041954;28;20112;-67
2023/07/19 00:51:18;;;;;;;1.85;1.08;;;20.20;66.00;;;;;;5040833;28;20118;-67
2023/07/19 00:53:47;;;;;;;2.05;1.20;;;20.00;66.30;;;;;;5056373;28;20027;-66
2023/07/19 00:56:13;;;;;;;1.95;1.00;;;20.00;66.80;;;;;;5057836;28;20052;-66
2023/07/19 00:58:40;;;;;;;2.15;1.00;;;19.90;67.00;;;;;;5056099;28;20047;-65
2023/07/19 01:01:06;;;;;;;1.25;0.95;;;19.90;67.00;;;;;;5053549;28;20086;-67
2023/07/19 01:03:32;;;;;;;1.55;1.08;;;19.90;67.00;;;;;;5048578;28;20433;-68
2023/07/19 01:05:59;;;;;;;2.83;1.30;;;19.90;66.90;;;;;;5038192;28;20068;-68
2023/07/19 01:08:25;;;;;;;2.58;1.30;;;19.90;67.00;;;;;;5049074;28;20052;-68
2023/07/19 01:10:51;;;;;;;2.42;1.10;;;19.90;67.80;;;;;;5052186;28;20012;-67
2023/07/19 01:13:17;;;;;;;1.92;1.00;;;19.80;67.30;;;;;;5049485;28;20488;-65
2023/07/19 01:15:43;;;;;;;1.85;1.08;;;19.80;67.50;;;;;;5047068;28;20029;-67
2023/07/19 01:18:09;;;;;;;2.80;1.20;;;19.80;67.70;;;;;;5044230;28;20506;-68
2023/07/19 01:20:35;;;;;;;2.10;1.00;;;19.80;67.70;;;;;;5065370;28;20067;-68
2023/07/19 01:23:02;;;;;;;3.08;1.20;;;19.80;67.80;;;;;;5049892;28;20025;-67
2023/07/19 01:25:27;;;;;;;2.05;0.90;;;19.60;67.90;;;;;;5056332;28;20028;-66
2023/07/19 01:27:53;;;;;;;1.60;1.13;;;19.60;68.20;;;;;;5053340;28;20024;-68
2023/07/19 01:30:19;;;;;;;2.00;0.95;;;19.50;68.40;;;;;;5055992;28;20108;-68
2023/07/19 01:32:45;;;;;;;1.48;0.90;;;19.40;68.80;;;;;;5058176;28;20025;-68
2023/07/19 01:35:11;;;;;;;2.80;1.10;;;19.40;69.00;;;;;;5051801;28;20116;-68
2023/07/19 01:37:37;;;;;;;1.77;1.08;;;19.40;69.10;;;;;;5048866;28;20539;-68
2023/07/19 01:40:04;;;;;;;2.15;1.10;;;19.40;69.10;;;;;;5048489;28;20100;-67
2023/07/19 01:42:30;;;;;;;2.78;1.20;;;19.40;69.10;;;;;;5048966;28;20440;-67
2023/07/19 01:44:56;;;;;;;2.10;1.20;;;19.40;69.20;;;;;;5052300;28;20132;-68
2023/07/19 01:47:21;;;;;;;1.15;1.00;;;19.30;69.30;;;;;;5055750;28;20028;-68
2023/07/19 01:49:47;;;;;;;1.25;1.00;;;19.30;69.40;;;;;;5060564;28;20503;-69
2023/07/19 01:52:13;;;;;;;2.15;0.90;;;19.20;69.70;;;;;;5048511;28;20158;-67
2023/07/19 01:54:38;;;;;;;1.50;1.08;;;19.20;69.80;;;;;;5052094;28;20032;-67
2023/07/19 01:57:05;;;;;;;1.60;1.10;;;19.20;69.80;;;;;;5049933;28;20044;-68
2023/07/19 01:59:31;;;;;;;1.38;1.05;;;19.10;69.90;;;;;;5043230;28;20023;-69
2023/07/19 02:01:57;;;;;;;1.10;0.95;;;19.10;70.20;;;;;;5050707;28;20485;-69
2023/07/19 02:04:22;;;;;;;1.13;0.93;;;19.10;70.10;;;;;;5036794;28;20043;-68
2023/07/19 02:06:48;;;;;;;1.63;0.95;;;19.10;70.10;;;;;;5057195;28;20017;-67
2023/07/19 02:09:14;;;;;;;2.28;1.00;;;19.10;70.30;;;;;;5052821;28;20020;-67
2023/07/19 02:11:40;;;;;;;2.38;1.00;;;19.00;70.30;;;;;;5052705;28;20479;-67
2023/07/19 02:14:06;;;;;;;1.40;1.00;;;19.00;70.50;;;;;;5056938;28;20032;-67
2023/07/19 02:16:31;;;;;;;1.95;1.05;;;19.00;70.80;;;;;;5051315;28;20483;-67
2023/07/19 02:18:57;;;;;;;2.05;1.10;;;18.90;70.90;;;;;;5053264;28;20108;-67
2023/07/19 02:21:23;;;;;;;1.95;1.13;;;18.90;71.00;;;;;;5033365;28;20025;-68
2023/07/19 02:23:49;;;;;;;1.90;1.17;;;19.00;71.10;;;;;;5047736;28;20016;-68
2023/07/19 02:26:15;;;;;;;2.00;1.27;;;18.90;71.20;;;;;;5060673;28;20017;-68
2023/07/19 02:28:40;;;;;;;1.95;1.10;;;18.90;71.20;;;;;;5046491;28;20082;-66
2023/07/19 02:31:06;;;;;;;1.48;1.05;;;18.90;71.30;;;;;;5052481;28;20036;-68
2023/07/19 02:33:31;;;;;;;1.83;1.15;;;19.00;71.20;;;;;;5063109;28;20597;-67
2023/07/19 02:35:57;;;;;;;1.65;1.10;;;19.00;71.20;;;;;;5045375;28;20116;-66
2023/07/19 02:38:23;;;;;;;1.52;1.02;;;19.00;71.00;;;;;;5062198;28;20024;-67
2023/07/19 02:40:49;;;;;;;11.52;6.32;;;19.00;71.10;;;;;;5038137;28;20142;-68
2023/07/19 02:43:15;;;;;;;7.03;3.63;;;18.90;71.30;;;;;;5054990;28;20070;-68
2023/07/19 02:45:41;;;;;;;4.47;2.60;;;18.80;72.30;;;;;;5051986;28;20063;-68
2023/07/19 02:48:07;;;;;;;3.22;2.13;;;18.80;72.00;;;;;;5053113;28;20052;-68
2023/07/19 02:50:32;;;;;;;3.47;1.90;;;18.80;72.00;;;;;;5033709;28;20025;-67
2023/07/19 02:52:58;;;;;;;2.05;1.40;;;18.80;72.10;;;;;;5039157;28;20022;-67
2023/07/19 02:55:24;;;;;;;2.42;1.40;;;18.70;72.10;;;;;;5056266;28;20211;-67
2023/07/19 02:57:49;;;;;;;1.33;1.17;;;18.70;72.30;;;;;;5051973;28;20060;-68
2023/07/19 03:00:15;;;;;;;4.40;2.63;;;18.70;72.40;;;;;;5062638;28;20191;-69
2023/07/19 03:02:41;;;;;;;4.75;2.40;;;18.80;72.40;;;;;;5057146;28;20029;-69
2023/07/19 03:05:07;;;;;;;2.63;1.65;;;18.70;72.30;;;;;;5051472;28;20021;-68
2023/07/19 03:07:33;;;;;;;3.15;1.73;;;18.70;72.40;;;;;;5033108;28;20025;-69
2023/07/19 03:09:59;;;;;;;3.05;1.80;;;18.70;72.40;;;;;;5051591;28;20045;-68
2023/07/19 03:12:24;;;;;;;2.97;1.90;;;18.70;72.40;;;;;;5055788;28;20571;-68
2023/07/19 03:14:50;;;;;;;3.45;1.60;;;18.70;72.30;;;;;;5056665;28;20135;-69
2023/07/19 03:17:16;;;;;;;3.50;1.50;;;18.70;72.30;;;;;;5051934;28;20475;-69
2023/07/19 03:19:41;;;;;;;3.47;1.42;;;18.70;72.00;;;;;;5054883;28;20025;-74
2023/07/19 03:22:07;;;;;;;2.85;1.45;;;18.70;71.80;;;;;;5058442;28;20104;-66
2023/07/19 03:24:33;;;;;;;3.10;1.17;;;18.70;71.50;;;;;;5057045;28;20024;-67
2023/07/19 03:26:59;;;;;;;2.65;1.30;;;18.70;71.30;;;;;;5053890;28;20116;-68
2023/07/19 03:29:24;;;;;;;3.22;1.17;;;18.70;71.20;;;;;;5055261;28;20025;-68
2023/07/19 03:31:50;;;;;;;2.30;1.00;;;18.70;71.00;;;;;;5055515;28;20039;-69
2023/07/19 03:34:15;;;;;;;1.73;1.05;;;18.70;70.90;;;;;;5057719;28;20013;-67
2023/07/19 03:36:41;;;;;;;2.42;1.23;;;18.70;70.90;;;;;;5049891;28;20021;-68
2023/07/19 03:39:06;;;;;;;1.23;0.98;;;18.70;70.80;;;;;;5048263;28;20487;-68
2023/07/19 03:41:32;;;;;;;2.58;1.30;;;18.70;70.80;;;;;;5055532;28;20099;-68
2023/07/19 03:43:58;;;;;;;2.63;1.20;;;18.70;70.70;;;;;;5056281;28;20430;-68
2023/07/19 03:46:23;;;;;;;2.05;1.35;;;18.70;70.50;;;;;;5054194;28;20017;-68
2023/07/19 03:48:49;;;;;;;3.40;1.40;;;18.70;70.40;;;;;;5058866;28;20017;-68
2023/07/19 03:51:15;;;;;;;2.22;1.30;;;18.70;70.20;;;;;;5063015;28;20024;-67
2023/07/19 03:53:40;;;;;;;2.55;1.20;;;18.70;70.20;;;;;;5031729;28;20052;-67
2023/07/19 03:56:06;;;;;;;2.28;1.30;;;18.70;70.00;;;;;;5035646;28;20543;-68
2023/07/19 03:58:31;;;;;;;2.58;1.50;;;18.70;69.80;;;;;;5049342;28;20025;-67
2023/07/19 04:00:58;;;;;;;2.40;1.17;;;18.70;69.70;;;;;;5056969;28;20572;-67
2023/07/19 04:03:26;;;;;;;5.43;1.50;;;18.70;69.50;;;;;;5056610;28;20061;-67
2023/07/19 04:05:53;;;;;;;3.08;1.60;;;18.70;69.40;;;;;;5044639;28;20020;-67
2023/07/19 04:08:18;;;;;;;3.92;1.60;;;18.80;69.30;;;;;;5060530;28;20048;-67
2023/07/19 04:10:44;;;;;;;3.17;1.88;;;18.80;69.10;;;;;;5050902;28;20056;-68
2023/07/19 04:13:11;;;;;;;2.92;1.50;;;18.90;69.00;;;;;;5054561;28;20040;-68
2023/07/19 04:15:37;;;;;;;4.35;2.03;;;19.00;68.80;;;;;;5049752;28;20044;-67
2023/07/19 04:18:03;;;;;;;3.05;1.67;;;19.00;68.70;;;;;;5035637;28;20068;-68
2023/07/19 04:20:29;;;;;;;4.70;1.70;;;19.00;68.80;;;;;;5051240;28;20052;-67
2023/07/19 04:22:56;;;;;;;3.13;1.80;;;19.00;69.10;;;;;;5050969;28;20020;-66
2023/07/19 04:25:24;;;;;;;3.75;1.95;;;19.00;69.30;;;;;;5054295;28;20073;-66
2023/07/19 04:27:50;;;;;;;3.78;1.90;;;19.00;69.50;;;;;;5049536;28;20638;-67
2023/07/19 04:30:16;;;;;;;2.95;2.03;;;18.90;69.60;;;;;;5055031;28;20450;-67
2023/07/19 04:32:42;;;;;;;4.30;2.25;;;18.90;69.80;;;;;;5059265;28;20021;-69
2023/07/19 04:35:07;;;;;;;4.32;2.25;;;18.90;69.90;;;;;;5047659;28;20028;-66
2023/07/19 04:37:34;;;;;;;3.92;1.92;;;18.90;70.30;;;;;;5056996;28;20025;-67
2023/07/19 04:39:59;;;;;;;4.78;1.95;;;18.90;70.40;;;;;;5049887;28;20479;-67
2023/07/19 04:42:25;;;;;;;2.60;2.03;;;18.80;70.50;;;;;;5052392;28;20090;-68
2023/07/19 04:44:50;;;;;;;3.08;2.00;;;18.80;70.60;;;;;;5057418;28;20491;-68
2023/07/19 04:47:17;;;;;;;3.58;2.00;;;18.90;70.60;;;;;;5054332;28;20032;-68
2023/07/19 04:49:42;;;;;;;3.00;1.90;;;18.90;70.60;;;;;;5055591;28;20379;-69
2023/07/19 04:52:08;;;;;;;2.78;1.85;;;18.90;70.60;;;;;;5037882;28;20021;-68
2023/07/19 04:54:34;;;;;;;3.67;1.83;;;19.00;70.60;;;;;;5052524;28;20025;-66
2023/07/19 04:57:00;;;;;;;3.35;2.10;;;19.00;70.60;;;;;;5053298;28;20507;-67
2023/07/19 04:59:26;;;;;;;3.53;2.20;;;19.00;70.60;;;;;;5046494;28;20025;-68
2023/07/19 05:01:51;;;;;;;3.60;1.95;;;19.10;70.50;;;;;;5054713;28;20082;-67
2023/07/19 05:04:17;;;;;;;5.82;2.40;;;19.10;71.20;;;;;;5051107;28;20040;-67
2023/07/19 05:06:43;;;;;;;3.88;2.00;;;19.10;70.60;;;;;;5064447;28;20044;-69
2023/07/19 05:09:10;;;;;;;2.88;1.83;;;19.10;70.70;;;;;;5042641;28;20523;-69
2023/07/19 05:11:36;;;;;;;3.47;2.03;;;19.20;70.70;;;;;;5057101;28;20100;-69
2023/07/19 05:14:02;;;;;;;3.67;2.28;;;19.20;70.60;;;;;;5050959;28;20032;-69
2023/07/19 05:16:27;;;;;;;3.03;2.17;;;19.20;71.30;;;;;;5060537;28;20112;-69
2023/07/19 05:18:53;;;;;;;2.88;1.95;;;19.20;70.80;;;;;;5057772;28;20083;-69
2023/07/19 05:21:19;;;;;;;4.30;2.00;;;19.20;70.90;;;;;;5049186;28;20547;-68
2023/07/19 05:23:45;;;;;;;3.30;2.08;;;19.30;71.00;;;;;;5034497;28;20025;-69
2023/07/19 05:26:11;;;;;;;3.80;2.15;;;19.30;71.20;;;;;;5047780;28;20141;-69
2023/07/19 05:28:37;;;;;;;3.50;2.17;;;19.30;71.30;;;;;;5055344;28;20423;-68
2023/07/19 05:31:04;;;;;;;3.30;1.80;;;19.40;71.30;;;;;;5056251;28;20644;-68
2023/07/19 05:33:30;;;;;;;2.60;2.22;;;19.40;71.10;;;;;;5053352;28;20021;-68
2023/07/19 05:35:56;;;;;;;3.20;1.98;;;19.40;71.20;;;;;;5048779;28;20017;-68
2023/07/19 05:38:21;;;;;;;3.75;2.22;;;19.40;71.20;;;;;;5056830;28;20043;-67
2023/07/19 05:40:47;;;;;;;3.60;2.33;;;19.50;71.50;;;;;;5059997;28;20028;-67
2023/07/19 05:43:13;;;;;;;3.47;2.38;;;19.70;71.50;;;;;;5056160;28;20211;-69
2023/07/19 05:45:38;;;;;;;3.25;2.30;;;20.30;70.70;;;;;;5055520;28;20029;-69
2023/07/19 05:48:07;;;;;;;3.88;2.13;;;21.20;68.90;;;;;;5050109;28;20025;-69
2023/07/19 05:50:32;;;;;;;2.70;2.30;;;22.10;66.50;;;;;;5043419;28;20020;-68
2023/07/19 05:52:58;;;;;;;3.05;1.90;;;22.00;65.70;;;;;;5059393;28;20454;-67
2023/07/19 05:55:24;;;;;;;3.40;2.17;;;22.00;65.80;;;;;;5053210;28;20040;-67
2023/07/19 05:57:50;;;;;;;3.63;2.40;;;21.70;65.90;;;;;;5056505;28;20021;-68
2023/07/19 06:00:24;;;;;;;3.67;2.28;;;21.60;66.30;;;;;;5057914;28;20027;-68
2023/07/19 06:02:51;;;;;;;3.58;2.17;;;21.50;66.60;;;;;;5048047;28;20036;-69
2023/07/19 06:05:17;;;;;;;2.88;2.13;;;21.90;66.10;;;;;;5058336;28;20025;-67
2023/07/19 06:07:43;;;;;;;3.53;2.25;;;22.20;65.50;;;;;;5055585;28;20025;-68
2023/07/19 06:10:09;;;;;;;5.53;2.58;;;22.60;65.30;;;;;;5045686;28;20026;-67
2023/07/19 06:12:34;;;;;;;4.22;2.28;;;23.20;63.60;;;;;;5048364;28;20071;-68
2023/07/19 06:15:00;;;;;;;3.75;2.05;;;23.60;62.20;;;;;;5053890;28;20542;-68
2023/07/19 06:17:25;;;;;;;4.13;2.50;;;23.90;61.60;;;;;;5060272;28;20059;-68
2023/07/19 06:19:51;;;;;;;2.95;2.28;;;24.10;61.00;;;;;;5059452;28;20036;-67
2023/07/19 06:22:17;;;;;;;4.63;2.20;;;24.20;60.50;;;;;;5064421;28;20052;-69
2023/07/19 06:24:42;;;;;;;6.10;2.20;;;24.30;60.30;;;;;;5067727;28;20071;-69
2023/07/19 06:27:08;;;;;;;4.85;2.30;;;24.30;60.00;;;;;;5052717;28;20025;-68
2023/07/19 06:29:34;;;;;;;4.05;2.30;;;24.40;60.10;;;;;;5051893;28;20424;-68
2023/07/19 06:31:59;;;;;;;3.20;2.20;;;25.10;59.30;;;;;;5036348;28;20091;-69
2023/07/19 06:34:25;;;;;;;4.32;1.90;;;25.50;58.40;;;;;;5051777;28;20029;-67
2023/07/19 06:36:51;;;;;;;3.63;2.10;;;25.30;58.00;;;;;;5056215;28;20029;-68
2023/07/19 06:39:16;;;;;;;4.00;1.60;;;25.00;58.30;;;;;;5051931;28;20028;-68
2023/07/19 06:41:42;;;;;;;3.53;1.70;;;24.40;58.50;;;;;;5051927;28;20025;-68
2023/07/19 06:44:08;;;;;;;3.20;1.52;;;24.20;58.80;;;;;;5056146;28;20047;-69
2023/07/19 06:46:33;;;;;;;4.43;1.98;;;23.80;59.10;;;;;;5055439;28;20021;-67
2023/07/19 06:48:59;;;;;;;4.68;1.73;;;23.50;59.70;;;;;;5050467;28;20104;-69
2023/07/19 06:51:25;;;;;;;2.38;1.60;;;23.40;60.00;;;;;;5051594;28;20028;-69
2023/07/19 06:53:50;;;;;;;3.15;1.48;;;23.40;60.00;;;;;;5034617;28;20036;-68
2023/07/19 06:56:16;;;;;;;2.63;1.50;;;23.50;60.10;;;;;;5051559;28;20055;-69
2023/07/19 06:58:41;;;;;;;2.70;1.50;;;23.70;60.00;;;;;;5056211;28;20032;-70
2023/07/19 07:01:07;;;;;;;3.40;1.65;;;23.80;59.60;;;;;;5047512;28;20039;-69
2023/07/19 07:03:34;;;;;;;3.38;1.45;;;23.80;58.70;;;;;;5057003;28;20392;-70
2023/07/19 07:06:00;;;;;;;3.05;1.50;;;23.80;58.20;;;;;;5048892;28;20013;-70
2023/07/19 07:08:26;;;;;;;3.05;1.25;;;23.70;58.00;;;;;;5049737;28;20385;-69
2023/07/19 07:10:53;;;;;;;2.17;1.25;;;23.60;58.00;;;;;;5049788;28;20032;-70
2023/07/19 07:13:19;;;;;;;4.03;1.30;;;23.50;58.10;;;;;;5055004;28;20100;-69
2023/07/19 07:15:45;;;;;;;3.13;1.20;;;23.40;58.40;;;;;;5050122;28;20115;-69
2023/07/19 07:18:10;;;;;;;2.00;1.15;;;23.40;58.60;;;;;;5049289;28;20074;-68
2023/07/19 07:20:36;;;;;;;2.75;1.48;;;23.30;58.70;;;;;;5049762;28;20081;-68
2023/07/19 07:23:02;;;;;;;2.40;1.27;;;23.20;58.80;;;;;;5066972;28;20029;-69
2023/07/19 07:25:29;;;;;;;2.22;1.30;;;23.10;58.90;;;;;;5032533;28;20020;-70
2023/07/19 07:27:55;;;;;;;2.92;1.30;;;23.10;59.00;;;;;;5050608;28;21638;-69
2023/07/19 07:30:21;;;;;;;2.35;1.27;;;23.20;59.00;;;;;;5050091;28;20108;-67
2023/07/19 07:32:46;;;;;;;2.97;1.40;;;23.30;58.80;;;;;;5049121;28;20086;-68
2023/07/19 07:35:12;;;;;;;2.22;1.40;;;23.30;58.70;;;;;;5029910;28;20063;-69
2023/07/19 07:37:39;;;;;;;2.65;1.45;;;23.40;58.10;;;;;;5052596;28;20471;-68
2023/07/19 07:40:05;;;;;;;2.28;1.20;;;23.50;58.10;;;;;;5049915;28;20696;-71
2023/07/19 07:42:31;;;;;;;3.47;1.40;;;23.60;57.70;;;;;;5050008;28;20095;-69
2023/07/19 07:44:59;;;;;;;2.85;1.35;;;23.80;57.50;;;;;;5050455;28;20415;-68
2023/07/19 07:47:25;;;;;;;5.43;1.92;;;24.00;57.30;;;;;;5048302;28;20094;-69
2023/07/19 07:49:51;;;;;;;3.47;1.83;;;23.90;56.30;;;;;;5046870;28;20032;-68
2023/07/19 07:52:17;;;;;;;2.83;1.75;;;23.80;56.50;;;;;;5050844;28;20017;-69
2023/07/19 07:54:44;;;;;;;3.65;1.90;;;23.70;56.70;;;;;;5048694;28;20025;-68
2023/07/19 07:57:09;;;;;;;2.78;1.55;;;23.80;57.30;;;;;;5051737;28;20024;-69
2023/07/19 07:59:35;;;;;;;2.88;1.65;;;24.00;57.60;;;;;;5052565;28;20100;-69
2023/07/19 08:02:01;;;;;;;3.65;2.00;;;24.30;57.50;;;;;;5032217;28;20032;-67
2023/07/19 08:04:27;;;;;;;3.60;1.95;;;24.60;57.30;;;;;;5049913;28;20086;-68
2023/07/19 08:06:53;;;;;;;2.92;1.70;;;24.60;57.10;;;;;;5050467;28;20063;-68
2023/07/19 08:09:19;;;;;;;4.30;1.85;;;24.60;57.10;;;;;;5050334;28;20014;-68
2023/07/19 08:11:45;;;;;;;3.42;2.08;;;24.60;57.00;;;;;;5044948;28;20021;-69
2023/07/19 08:14:11;;;;;;;4.97;2.08;;;24.60;57.10;;;;;;5047803;28;20037;-69
2023/07/19 08:16:36;;;;;;;4.00;2.00;;;24.60;57.00;;;;;;5043216;28;20056;-68
2023/07/19 08:19:02;;;;;;;5.28;2.20;;;24.60;57.30;;;;;;5051634;28;20051;-70
2023/07/19 08:21:28;;;;;;;3.63;2.00;;;24.80;56.90;;;;;;5047862;28;20040;-69
2023/07/19 08:23:55;;;;;;;3.88;1.85;;;25.10;57.00;;;;;;5047520;28;20488;-68
2023/07/19 08:26:22;;;;;;;5.90;2.15;;;25.30;56.70;;;;;;5048597;28;20025;-70
2023/07/19 08:28:48;;;;;;;4.50;2.40;;;25.40;56.60;;;;;;5032077;28;20067;-70
2023/07/19 08:31:15;;;;;;;3.97;1.75;;;25.40;56.20;;;;;;5047631;28;20411;-68
2023/07/19 08:33:42;;;;;;;3.60;1.45;;;25.50;56.30;;;;;;5049473;28;20258;-69
2023/07/19 08:36:07;;;;;;;4.63;2.00;;;25.70;56.30;;;;;;5050517;28;20029;-67
2023/07/19 08:38:33;;;;;;;4.32;2.17;;;25.70;55.50;;;;;;5030619;28;20039;-68
2023/07/19 08:41:01;;;;;;;4.28;1.90;;;25.80;55.20;;;;;;5045820;28;20025;-68
2023/07/19 08:43:29;;;;;;;5.05;2.10;;;25.80;55.20;;;;;;5049821;28;20033;-70
2023/07/19 08:45:55;;;;;;;3.55;1.80;;;25.70;55.00;;;;;;5048487;28;20040;-69
2023/07/19 08:48:21;;;;;;;3.55;1.67;;;25.70;54.90;;;;;;5030600;28;20582;-68
2023/07/19 08:50:57;;;;;;;3.47;1.90;;;25.60;55.10;;;;;;5050680;28;20048;-68
2023/07/19 08:53:27;;;;;;;4.25;1.83;;;25.50;55.30;;;;;;5053585;28;20120;-69
2023/07/19 08:55:53;;;;;;;4.43;1.90;;;25.40;55.70;;;;;;5050179;28;20036;-69
2023/07/19 08:58:19;;;;;;;2.85;1.63;;;25.30;55.90;;;;;;5056498;28;20403;-69
2023/07/19 09:00:46;;;;;;;4.57;1.80;;;25.10;55.90;;;;;;5047989;28;20120;-69
2023/07/19 09:03:12;;;;;;;3.42;1.65;;;25.10;55.90;;;;;;5047518;28;20510;-68
2023/07/19 09:05:38;;;;;;;4.18;1.80;;;25.00;56.00;;;;;;5055068;28;20025;-68
2023/07/19 09:08:04;;;;;;;3.30;1.60;;;25.00;56.10;;;;;;5046941;28;20392;-68
2023/07/19 09:10:30;;;;;;;3.38;1.75;;;24.90;56.40;;;;;;5028870;28;20029;-67
2023/07/19 09:12:57;;;;;;;3.92;1.80;;;24.80;56.70;;;;;;5051768;28;20025;-69
2023/07/19 09:15:25;;;;;;;4.28;1.98;;;24.80;56.70;;;;;;5047990;28;20021;-69
2023/07/19 09:17:50;;;;;;;3.78;1.95;;;24.80;56.90;;;;;;5050566;28;20043;-69
2023/07/19 09:20:17;;;;;;;3.78;1.90;;;24.70;57.10;;;;;;5044544;28;20025;-69
2023/07/19 09:22:42;;;;;;;4.25;2.10;;;24.80;57.20;;;;;;5048876;28;20119;-69
2023/07/19 09:25:12;;;;;;;3.25;1.77;;;24.90;57.10;;;;;;5047740;28;20119;-69
2023/07/19 09:27:41;;;;;;;4.65;1.98;;;25.00;57.00;;;;;;5047891;28;20025;-70
2023/07/19 09:30:12;;;;;;;3.38;1.70;;;25.10;56.50;;;;;;5047115;28;20029;-70
2023/07/19 09:32:38;;;;;;;2.70;1.52;;;25.30;55.30;;;;;;5048876;28;20462;-70
2023/07/19 09:35:05;;;;;;;2.55;1.45;;;25.20;53.90;;;;;;5047191;28;20429;-70
2023/07/19 09:37:31;;;;;;;2.80;1.45;;;25.10;53.90;;;;;;5048652;28;20112;-70
2023/07/19 09:39:59;;;;;;;1.73;1.40;;;25.10;54.20;;;;;;5048434;28;20847;-69
2023/07/19 09:42:25;;;;;;;2.17;1.50;;;25.00;54.50;;;;;;5047615;28;20025;-69
2023/07/19 09:44:52;;;;;;;2.97;1.42;;;25.00;54.50;;;;;;5048478;28;20033;-68
2023/07/19 09:47:18;;;;;;;2.70;1.52;;;25.10;54.40;;;;;;5045977;28;20115;-69
2023/07/19 09:49:44;;;;;;;1.67;1.30;;;25.20;54.30;;;;;;5047021;28;20032;-68
2023/07/19 09:52:17;;;;;;;3.40;1.60;;;25.30;54.30;;;;;;5062943;28;20570;-70
2023/07/19 09:54:43;;;;;;;2.67;1.58;;;25.30;54.30;;;;;;5050618;28;20376;-69
2023/07/19 09:57:09;;;;;;;5.57;1.70;;;25.50;54.30;;;;;;5049255;28;20120;-70
2023/07/19 09:59:44;;;;;;;3.13;1.70;;;25.70;54.00;;;;;;5051775;28;20144;-70
2023/07/19 10:02:11;;;;;;;2.58;1.42;;;25.80;53.70;;;;;;5048676;28;20162;-69
2023/07/19 10:04:38;;;;;;;4.63;1.80;;;26.00;53.60;;;;;;5031122;28;20434;-70
2023/07/19 10:07:07;;;;;;;2.95;1.63;;;26.10;53.50;;;;;;5048634;28;20025;-70
2023/07/19 10:09:37;;;;;;;2.67;1.65;;;26.20;53.10;;;;;;5048673;28;20031;-70
2023/07/19 10:12:07;;;;;;;3.03;1.70;;;26.20;52.80;;;;;;5050506;28;20032;-69
2023/07/19 10:14:33;;;;;;;3.42;1.60;;;26.30;52.70;;;;;;5049846;28;20456;-71
2023/07/19 10:17:00;;;;;;;4.78;2.17;;;26.40;52.60;;;;;;5045888;28;20055;-71
2023/07/19 10:19:26;;;;;;;5.70;1.60;;;26.20;52.30;;;;;;5049923;28;20116;-68
2023/07/19 10:22:05;;;;;;;3.72;1.90;;;26.20;52.80;;;;;;5046350;28;20025;-69
2023/07/19 10:25:03;;;;;;;3.58;1.60;;;26.20;53.00;;;;;;5052250;28;20033;-69
2023/07/19 10:27:35;;;;;;;3.03;1.55;;;26.10;53.20;;;;;;5050886;28;20107;-69
2023/07/19 10:30:05;;;;;;;3.50;1.90;;;26.00;53.70;;;;;;5051499;28;20051;-71
2023/07/19 10:32:31;;;;;;;6.38;2.47;;;25.80;54.70;;;;;;5051181;28;20027;-70
2023/07/19 10:34:57;;;;;;;5.00;2.28;;;25.20;57.50;;;;;;5050543;28;20411;-69
2023/07/19 10:37:22;;;;;;;4.32;2.20;;;24.60;58.80;;;;;;5050068;28;20021;-69
2023/07/19 10:39:48;;;;;;;3.75;2.17;;;24.10;60.60;;;;;;5051525;28;20037;-69
2023/07/19 10:42:14;;;;;;;3.15;2.10;;;23.80;62.90;;;;;;5035641;28;20035;-69
2023/07/19 10:44:40;;;;;;;2.95;2.00;;;23.50;63.80;;;;;;5047466;28;20442;-69
2023/07/19 10:47:06;;;;;;;2.90;2.00;;;23.40;65.00;;;;;;5051093;28;20029;-70
2023/07/19 10:49:32;;;;;;;4.20;2.30;;;23.40;65.20;;;;;;5052708;28;20040;-69
2023/07/19 10:51:58;;;;;;;3.05;1.90;;;23.40;65.90;;;;;;5051201;28;20086;-69
2023/07/19 10:54:25;;;;;;;3.55;2.00;;;23.50;65.90;;;;;;5050918;28;20056;-67
2023/07/19 10:56:53;;;;;;;4.00;2.38;;;23.70;66.30;;;;;;5052389;28;20039;-68
2023/07/19 10:59:19;;;;;;;3.38;2.00;;;23.80;66.80;;;;;;5049683;28;20017;-69
2023/07/19 11:01:48;;;;;;;5.75;2.13;;;23.90;66.30;;;;;;5050120;28;20032;-69
2023/07/19 11:04:15;;;;;;;3.95;2.30;;;24.00;66.30;;;;;;5050381;28;20086;-69
2023/07/19 11:06:59;;;;;;;4.70;2.55;;;24.20;66.50;;;;;;5050033;28;20025;-68
2023/07/19 11:09:25;;;;;;;4.22;2.40;;;24.30;65.80;;;;;;5048476;28;20048;-67
2023/07/19 11:11:51;;;;;;;3.47;2.10;;;24.40;65.70;;;;;;5045816;28;20024;-68
2023/07/19 11:14:33;;;;;;;6.07;2.63;;;24.50;65.70;;;;;;5050073;28;20032;-69
2023/07/19 11:16:59;;;;;;;5.00;2.30;;;24.70;65.50;;;;;;5048377;28;20025;-69
2023/07/19 11:19:51;;;;;;;6.18;2.30;;;24.80;64.50;;;;;;5051297;28;20032;-68
2023/07/19 11:22:22;;;;;;;4.00;2.10;;;24.80;64.20;;;;;;5044733;28;20029;-69
2023/07/19 11:24:52;;;;;;;5.07;2.45;;;24.90;63.60;;;;;;5049123;28;20039;-68
2023/07/19 11:27:18;;;;;;;3.35;1.60;;;25.00;63.20;;;;;;5047794;28;20017;-68
2023/07/19 11:29:49;;;;;;;3.50;1.80;;;25.30;63.20;;;;;;5032571;28;20064;-68
2023/07/19 11:32:18;;;;;;;4.10;1.73;;;25.50;63.10;;;;;;5030823;28;20074;-69
2023/07/19 11:34:52;;;;;;;3.97;2.17;;;25.70;63.50;;;;;;5051099;28;20025;-69
2023/07/19 11:37:18;;;;;;;3.72;1.90;;;25.80;62.60;;;;;;5047216;28;20027;-70
2023/07/19 11:39:44;;;;;;;3.95;2.28;;;25.70;62.20;;;;;;5051244;28;20025;-68
2023/07/19 11:42:09;;;;;;;4.13;1.80;;;25.60;61.80;;;;;;5032985;28;20043;-69
2023/07/19 11:44:42;;;;;;;2.92;1.98;;;25.50;62.20;;;;;;5054058;28;20095;-69
2023/07/19 11:47:08;;;;;;;5.18;2.10;;;25.30;62.70;;;;;;5051086;28;20540;-69
2023/07/19 11:49:34;;;;;;;4.35;2.08;;;25.20;63.10;;;;;;5048947;28;20114;-70
2023/07/19 11:52:00;;;;;;;4.28;2.20;;;25.00;63.20;;;;;;5053917;28;20467;-70
2023/07/19 11:54:25;;;;;;;3.70;1.92;;;24.80;63.30;;;;;;5052989;28;20402;-70
2023/07/19 11:56:51;;;;;;;3.67;2.10;;;24.70;63.50;;;;;;5054071;28;20024;-68
2023/07/19 11:59:16;;;;;;;3.08;1.83;;;24.80;63.60;;;;;;5048971;28;20032;-70
2023/07/19 12:01:42;;;;;;;3.05;2.00;;;24.90;63.30;;;;;;5050771;28;20396;-70
2023/07/19 12:04:08;;;;;;;3.95;2.03;;;24.90;62.70;;;;;;5045246;28;20048;-69
2023/07/19 12:06:34;;;;;;;2.83;1.80;;;24.90;62.60;;;;;;5050011;28;20048;-70
2023/07/19 12:08:59;;;;;;;3.45;1.90;;;24.80;62.70;;;;;;5051037;28;20025;-69
2023/07/19 12:11:25;;;;;;;2.78;1.80;;;24.70;62.80;;;;;;5048808;28;20472;-70
2023/07/19 12:13:51;;;;;;;3.55;1.80;;;24.50;63.40;;;;;;5050952;28;20029;-70
2023/07/19 12:16:16;;;;;;;3.03;1.88;;;24.30;64.20;;;;;;5052796;28;20052;-68
2023/07/19 12:18:42;;;;;;;3.08;1.90;;;24.20;65.20;;;;;;5050483;28;20025;-68
2023/07/19 12:21:08;;;;;;;4.38;1.98;;;23.90;66.40;;;;;;5049303;28;20053;-68
2023/07/19 12:23:33;;;;;;;2.10;1.60;;;23.70;66.70;;;;;;5048546;28;20053;-69
2023/07/19 12:25:59;;;;;;;3.53;1.77;;;23.40;67.40;;;;;;5049969;28;20017;-69
2023/07/19 12:28:25;;;;;;;3.45;1.60;;;23.20;68.30;;;;;;5048318;28;20493;-69
2023/07/19 12:30:50;;;;;;;4.22;1.85;;;23.10;68.60;;;;;;5050407;28;20450;-67
2023/07/19 12:33:17;;;;;;;3.20;1.60;;;23.00;68.90;;;;;;5047903;28;20040;-68
2023/07/19 12:35:47;;;;;;;3.35;2.10;;;22.90;69.50;;;;;;5048662;28;20021;-67
2023/07/19 12:38:13;;;;;;;2.80;1.75;;;23.00;70.00;;;;;;5031833;28;20033;-68
2023/07/19 12:40:40;;;;;;;2.90;1.70;;;23.10;69.80;;;;;;5048736;28;20029;-68
2023/07/19 12:43:06;;;;;;;3.03;1.70;;;23.20;69.70;;;;;;5049916;28;20029;-69